createdAt,value
2022-10-01T06:47:19.766Z,100817.03
2022-10-01T06:49:57.196Z,100811.34
2022-10-01T06:52:46.339Z,100813.31
2022-10-01T06:55:25.947Z,100813.59
2022-10-01T06:58:04.946Z,100802.31
2022-10-01T07:00:42.647Z,100796.53
2022-10-01T07:03:24.969Z,100792.34
2022-10-01T07:06:09.227Z,100784.53
2022-10-01T07:08:46.229Z,100784.91
2022-10-01T07:11:24.407Z,100785.28
2022-10-01T07:14:01.886Z,100779.31
2022-10-01T07:16:41.313Z,100776.16
2022-10-01T07:19:20.907Z,100766.41
2022-10-01T07:21:57.995Z,100763.16
2022-10-01T07:24:35.138Z,100764.38
2022-10-01T07:27:12.598Z,100758.34
2022-10-01T07:29:49.588Z,100752.31
2022-10-01T07:32:27.349Z,100751.69
2022-10-01T07:35:09.378Z,100753.50
2022-10-01T07:37:46.323Z,100749.50
2022-10-01T07:40:23.585Z,100739.00
2022-10-01T07:43:01.062Z,100730.19
2022-10-01T07:45:37.966Z,100726.88
2022-10-01T07:48:15.456Z,100730.59
2022-10-01T07:50:55.323Z,100727.09
2022-10-01T07:53:32.945Z,100722.94
2022-10-01T07:56:10.246Z,100718.53
2022-10-01T07:58:47.609Z,100713.28
2022-10-01T08:01:24.740Z,100709.72
2022-10-01T08:04:22.327Z,100712.59
2022-10-01T08:07:02.226Z,100696.09
2022-10-01T08:09:40.282Z,100703.13
2022-10-01T08:12:18.158Z,100705.13
2022-10-01T08:14:55.278Z,100702.06
2022-10-01T08:17:32.296Z,100696.22
2022-10-01T08:20:14.097Z,100692.03
2022-10-01T08:22:54.059Z,100692.38
2022-10-01T08:25:32.049Z,100682.72
2022-10-01T08:28:10.215Z,100685.63
2022-10-01T08:30:47.986Z,100671.03
2022-10-01T08:33:24.718Z,100666.59
2022-10-01T08:36:11.556Z,100666.78
2022-10-01T08:38:52.586Z,100672.13
2022-10-01T08:41:49.924Z,100667.63
2022-10-01T08:44:34.086Z,100662.31
2022-10-01T08:47:17.859Z,100652.53
2022-10-01T08:49:56.860Z,100653.13
2022-10-01T08:52:40.027Z,100653.53
2022-10-01T08:55:25.945Z,100653.66
2022-10-01T08:58:06.006Z,100652.53
2022-10-01T09:00:48.022Z,100642.28
2022-10-01T09:03:25.368Z,100637.81
2022-10-01T09:06:20.402Z,100636.25
2022-10-01T09:09:36.358Z,100631.19
2022-10-01T09:12:33.298Z,100625.03
2022-10-01T09:15:34.707Z,100608.56
2022-10-01T09:18:26.369Z,100609.78
2022-10-01T09:21:03.978Z,100601.50
2022-10-01T09:23:52.187Z,100599.00
2022-10-01T09:26:29.315Z,100601.78
2022-10-01T09:29:16.149Z,100598.78
2022-10-01T09:31:56.368Z,100592.75
2022-10-01T09:34:40.605Z,100595.53
2022-10-01T09:37:32.887Z,100586.69
2022-10-01T09:40:20.084Z,100573.38
2022-10-01T09:42:57.252Z,100574.59
2022-10-01T09:45:37.493Z,100568.97
2022-10-01T09:48:31.072Z,100575.31
2022-10-01T09:51:14.642Z,100566.50
2022-10-01T09:54:04.122Z,100567.91
2022-10-01T09:56:45.800Z,100568.50
2022-10-01T09:59:30.482Z,100553.97
2022-10-01T10:02:21.717Z,100570.25
2022-10-01T10:05:05.953Z,100561.41
2022-10-01T10:07:43.410Z,100555.78
2022-10-01T10:10:29.183Z,100554.88
2022-10-01T10:13:17.772Z,100549.66
2022-10-01T10:15:59.741Z,100541.31
2022-10-01T10:18:42.363Z,100540.34
2022-10-01T10:21:21.872Z,100543.72
2022-10-01T10:24:01.882Z,100540.47
2022-10-01T10:26:43.672Z,100545.56
2022-10-01T10:29:32.053Z,100533.34
2022-10-01T10:32:18.737Z,100532.34
2022-10-01T10:35:05.310Z,100524.47
2022-10-01T10:37:51.869Z,100524.31
2022-10-01T10:40:31.568Z,100510.59
2022-10-01T10:43:08.908Z,100506.66
2022-10-01T10:45:47.819Z,100510.38
2022-10-01T10:48:26.388Z,100507.84
2022-10-01T10:51:10.228Z,100495.19
2022-10-01T10:53:49.850Z,100490.00
2022-10-01T10:56:28.264Z,100492.66
2022-10-01T10:59:11.540Z,100488.31
2022-10-01T11:01:53.148Z,100490.41
2022-10-01T11:04:43.451Z,100483.44
2022-10-01T11:07:29.250Z,100473.13
2022-10-01T11:10:25.245Z,100477.56
2022-10-01T11:13:36.475Z,100471.06
2022-10-01T11:16:46.555Z,100468.34
2022-10-01T11:19:42.516Z,100460.75
2022-10-01T11:22:43.518Z,100452.44
2022-10-01T11:25:44.231Z,100451.44
2022-10-01T11:28:41.360Z,100445.06
2022-10-01T11:31:30.924Z,100437.03
2022-10-01T11:34:44.050Z,100430.88
2022-10-01T11:37:47.912Z,100442.88
2022-10-01T11:40:30.561Z,100430.41
2022-10-01T11:43:18.030Z,100432.25
2022-10-01T11:46:04.965Z,100429.25
2022-10-01T11:48:49.195Z,100414.97
2022-10-01T11:51:33.736Z,100407.66
2022-10-01T11:54:17.998Z,100418.22
2022-10-01T11:57:10.959Z,100410.94
2022-10-01T11:59:56.220Z,100408.25
2022-10-01T12:02:42.680Z,100405.63
2022-10-01T12:05:23.469Z,100405.63
2022-10-01T12:08:09.487Z,100411.78
2022-10-01T12:10:59.570Z,100410.94
2022-10-01T12:13:42.648Z,100395.56
2022-10-01T12:16:31.735Z,100405.94
2022-10-01T12:19:21.953Z,100390.19
2022-10-01T12:22:05.605Z,100389.34
2022-10-01T12:24:45.674Z,100378.06
2022-10-01T12:27:48.319Z,100383.59
2022-10-01T12:30:29.507Z,100378.31
2022-10-01T12:33:27.217Z,100376.81
2022-10-01T12:36:13.532Z,100370.56
2022-10-01T12:39:14.779Z,100360.56
2022-10-01T12:42:03.579Z,100361.41
2022-10-01T12:45:10.344Z,100352.16
2022-10-01T12:47:52.939Z,100351.72
2022-10-01T12:50:45.816Z,100344.66
2022-10-01T12:53:36.448Z,100339.25
2022-10-01T12:56:22.014Z,100332.63
2022-10-01T12:59:23.024Z,100341.38
2022-10-01T13:02:25.834Z,100344.91
2022-10-01T13:05:26.964Z,100341.66
2022-10-01T13:08:32.151Z,100342.19
2022-10-01T13:11:25.094Z,100328.97
2022-10-01T13:14:03.882Z,100322.78
2022-10-01T13:16:46.528Z,100321.13
2022-10-01T13:19:33.569Z,100325.00
2022-10-01T13:22:22.827Z,100328.41
2022-10-01T13:25:23.102Z,100313.97
2022-10-01T13:28:13.405Z,100321.72
2022-10-01T13:31:02.968Z,100310.00
2022-10-01T13:33:40.221Z,100319.66
2022-10-01T13:36:20.009Z,100311.13
2022-10-01T13:38:57.221Z,100298.56
2022-10-01T13:41:36.328Z,100296.56
2022-10-01T13:44:27.000Z,100292.91
2022-10-01T13:47:10.363Z,100290.38
2022-10-01T13:49:56.332Z,100291.22
2022-10-01T13:52:36.363Z,100290.88
2022-10-01T13:55:31.172Z,100296.44
2022-10-01T13:58:10.063Z,100284.84
2022-10-01T14:00:53.872Z,100276.16
2022-10-01T14:03:53.237Z,100275.16
2022-10-01T14:06:36.089Z,100280.34
2022-10-01T14:09:23.655Z,100275.47
2022-10-01T14:12:19.268Z,100271.59
2022-10-01T14:15:12.992Z,100281.19
2022-10-01T14:17:53.946Z,100277.44
2022-10-01T14:20:47.950Z,100282.00
2022-10-01T14:23:33.993Z,100265.38
2022-10-01T14:26:23.476Z,100263.41
2022-10-01T14:29:16.365Z,100269.56
2022-10-01T14:32:08.253Z,100265.72
2022-10-01T14:34:59.974Z,100253.50
2022-10-01T14:37:42.321Z,100258.69
2022-10-01T14:40:24.877Z,100251.34
2022-10-01T14:43:14.277Z,100252.19
2022-10-01T14:46:00.427Z,100248.84
2022-10-01T14:48:40.693Z,100246.28
2022-10-01T14:51:30.168Z,100253.13
2022-10-01T14:54:07.077Z,100250.94
2022-10-01T14:56:46.335Z,100249.28
2022-10-01T14:59:36.066Z,100253.63
2022-10-01T15:02:23.506Z,100240.38
2022-10-01T15:05:01.271Z,100235.69
2022-10-01T15:07:39.917Z,100228.78
2022-10-01T15:10:22.105Z,100226.13
2022-10-01T15:12:59.755Z,100221.75
2022-10-01T15:15:45.022Z,100219.38
2022-10-01T15:18:23.328Z,100219.75
2022-10-01T15:21:05.952Z,100223.72
2022-10-01T15:23:44.622Z,100231.56
2022-10-01T15:26:27.810Z,100227.22
2022-10-01T15:29:10.901Z,100220.34
2022-10-01T15:31:53.803Z,100214.63
2022-10-01T15:34:31.461Z,100218.31
2022-10-01T15:37:08.742Z,100217.66
2022-10-01T15:39:52.821Z,100215.28
2022-10-01T15:42:33.199Z,100209.75
2022-10-01T15:45:30.991Z,100201.88
2022-10-01T15:48:32.967Z,100199.53
2022-10-01T15:51:20.438Z,100200.34
2022-10-01T15:54:05.144Z,100210.88
2022-10-01T15:56:42.559Z,100198.47
2022-10-01T15:59:23.748Z,100207.47
2022-10-01T16:02:00.952Z,100191.78
2022-10-01T16:04:40.690Z,100190.66
2022-10-01T16:07:26.624Z,100194.38
2022-10-01T16:10:16.488Z,100191.34
2022-10-01T16:12:53.600Z,100191.63
2022-10-01T16:15:33.149Z,100188.28
2022-10-01T16:18:25.727Z,100180.44
2022-10-01T16:21:05.161Z,100188.59
2022-10-01T16:23:48.211Z,100178.25
2022-10-01T16:26:42.262Z,100182.75
2022-10-01T16:29:28.832Z,100179.53
2022-10-01T16:32:05.835Z,100178.88
2022-10-01T16:34:43.124Z,100173.81
2022-10-01T16:37:23.252Z,100173.16
2022-10-01T16:40:00.462Z,100169.81
2022-10-01T16:42:37.723Z,100166.47
2022-10-01T16:45:19.048Z,100158.56
2022-10-01T16:47:57.053Z,100159.06
2022-10-01T16:50:34.335Z,100157.16
2022-10-01T16:53:16.976Z,100145.31
2022-10-01T16:55:56.327Z,100145.66
2022-10-01T16:58:33.093Z,100138.94
2022-10-01T17:01:12.135Z,100135.59
2022-10-01T17:03:48.972Z,100133.38
2022-10-01T17:06:26.247Z,100141.56
2022-10-01T17:09:05.606Z,100140.53
2022-10-01T17:11:44.193Z,100137.16
2022-10-01T17:14:24.283Z,100131.59
2022-10-01T17:17:01.391Z,100135.13
2022-10-01T17:19:38.253Z,100130.38
2022-10-01T17:22:15.444Z,100137.06
2022-10-01T17:24:54.839Z,100137.53
2022-10-01T17:27:31.941Z,100136.84
2022-10-01T17:30:10.265Z,100137.63
2022-10-01T17:32:47.682Z,100131.59
2022-10-01T17:35:25.002Z,100129.22
2022-10-01T17:38:02.296Z,100137.53
2022-10-01T17:40:45.103Z,100139.22
2022-10-01T17:43:22.462Z,100135.88
